Time;durP1;ratioP1;P1;durP2;ratioP2;P2;SDS_P1;SDS_P2;PMS_P1;PMS_P2;Temp;Humidity;BMP_temperature;BMP_pressure;BME280_temperature;BME280_humidity;BME280_pressure;Samples;Min_cycle;Max_cycle;Signal;HPM_P1;HPM_P2
2022/01/23 00:01:14;;;;;;;310.30;295.60;;;;;;;7.08;82.70;102678.97;5063574;28;20036;-66
2022/01/23 00:03:45;;;;;;;303.35;289.15;;;;;;;7.04;83.18;102678.13;5047391;28;20091;-66
2022/01/23 00:06:12;;;;;;;266.55;254.18;;;;;;;6.71;83.82;102688.72;5048003;28;20523;-66
2022/01/23 00:08:39;;;;;;;301.40;287.10;;;;;;;6.90;83.24;102674.72;5047708;28;20056;-67
2022/01/23 00:11:07;;;;;;;362.17;342.70;;;;;;;6.70;83.93;102676.56;5064776;28;20056;-66
2022/01/23 00:17:12;;;;;;;307.45;292.85;;;;;;;6.80;83.56;102681.72;5066670;28;20044;-66
2022/01/23 00:19:04;;;;;;;268.67;255.68;;;;;;;6.67;83.98;102682.66;5066739;28;20052;-66
2022/01/23 00:21:32;;;;;;;422.25;397.15;;;;;;;6.43;84.15;102677.53;5067603;28;20135;-66
2022/01/23 00:32:16;;;;;;;250.30;238.35;;;;;;;6.97;82.13;102684.25;5050139;28;20567;-66
2022/01/23 00:34:42;;;;;;;286.73;273.27;;;;;;;6.91;82.05;102676.44;5061382;28;20485;-66
2022/01/23 00:37:09;;;;;;;292.83;278.27;;;;;;;6.65;83.38;102681.78;5049574;28;20451;-66
2022/01/23 00:39:36;;;;;;;298.20;283.90;;;;;;;6.81;82.43;102667.81;5059156;28;20113;-66
2022/01/23 00:42:04;;;;;;;243.05;231.57;;;;;;;6.81;82.35;102678.25;5066818;28;20510;-66
2022/01/23 00:44:31;;;;;;;274.05;260.48;;;;;;;7.04;81.46;102682.47;5066200;28;20044;-66
2022/01/23 00:46:58;;;;;;;289.80;275.70;;;;;;;6.81;82.08;102688.66;5063215;28;20083;-66
2022/01/23 00:49:27;;;;;;;232.88;222.27;;;;;;;7.06;81.54;102692.00;5065975;28;20044;-66
2022/01/23 00:51:54;;;;;;;253.25;241.07;;;;;;;6.84;81.91;102685.16;5057117;28;20098;-66
2022/01/23 00:54:21;;;;;;;270.58;257.23;;;;;;;7.30;80.27;102684.03;5066383;28;20048;-66
2022/01/23 00:56:49;;;;;;;278.75;264.67;;;;;;;6.77;81.69;102689.56;5066148;28;20616;-66
2022/01/23 00:59:16;;;;;;;242.15;230.77;;;;;;;6.84;81.91;102686.03;5065478;28;20558;-66
2022/01/23 01:01:42;;;;;;;230.77;220.30;;;;;;;7.09;81.05;102685.91;5062985;28;20044;-66
2022/01/23 01:04:09;;;;;;;345.50;327.98;;;;;;;6.68;81.98;102692.22;5065641;28;20087;-66
2022/01/23 01:06:35;;;;;;;257.67;245.88;;;;;;;6.74;82.38;102689.56;5065464;28;20068;-65
2022/01/23 01:09:05;;;;;;;305.35;290.55;;;;;;;6.50;83.10;102686.22;5066581;28;20056;-65
2022/01/23 01:17:29;;;;;;;542.50;505.48;;;;;;;6.34;83.09;102693.22;5099869;27;20359;-66
2022/01/23 01:30:59;;;;;;;243.50;232.25;;;;;;;6.70;82.83;102698.28;5102962;27;20524;-66
2022/01/23 01:33:37;;;;;;;256.92;244.65;;;;;;;6.97;81.37;102689.47;5102347;27;20044;-66
2022/01/23 01:36:17;;;;;;;267.58;254.90;;;;;;;6.86;81.60;102693.88;5103378;28;20040;-66
2022/01/23 01:38:44;;;;;;;277.08;263.95;;;;;;;6.86;81.87;102688.66;5102773;28;20476;-66
2022/01/23 01:41:10;;;;;;;276.98;263.40;;;;;;;7.00;81.35;102692.03;5098499;27;20445;-66
2022/01/23 01:43:36;;;;;;;261.52;249.05;;;;;;;6.62;82.39;102702.66;5082987;28;20064;-66
2022/01/23 01:46:03;;;;;;;259.08;247.10;;;;;;;6.75;82.03;102699.16;5092399;27;20338;-66
2022/01/23 01:48:31;;;;;;;270.95;256.80;;;;;;;6.74;81.30;102704.34;5086036;28;20052;-66
2022/01/23 01:50:59;;;;;;;228.35;217.52;;;;;;;6.99;80.96;102708.56;5083255;28;20102;-66
2022/01/23 01:53:25;;;;;;;298.63;284.48;;;;;;;6.94;80.42;102704.25;5094186;28;20601;-66
2022/01/23 01:55:55;;;;;;;247.13;234.73;;;;;;;6.99;80.67;102710.28;5082469;28;20470;-66
2022/01/23 01:59:11;;;;;;;254.50;242.55;;;;;;;7.06;80.57;102701.59;5081605;28;20075;-67
2022/01/23 02:09:41;;;;;;;220.20;209.73;;;;;;;6.98;80.78;102699.03;5082747;27;20143;-66
2022/01/23 02:12:28;;;;;;;213.27;203.38;;;;;;;6.95;80.39;102708.59;5105432;27;20043;-66
2022/01/23 02:15:15;;;;;;;191.25;182.10;;;;;;;6.93;80.63;102718.16;5101675;27;20123;-67
2022/01/23 02:17:55;;;;;;;189.02;180.27;;;;;;;6.96;80.46;102724.22;5082132;27;20082;-67
2022/01/23 02:23:25;;;;;;;226.80;215.88;;;;;;;6.70;81.19;102719.13;5095702;27;20070;-66
2022/01/23 02:50:47;;;;;;;211.43;201.10;;;;;;;7.08;79.03;102694.59;5071451;28;20105;-67
2022/01/23 02:53:39;;;;;;;217.68;207.38;;;;;;;7.14;79.02;102691.94;5087114;28;20135;-67
2022/01/23 02:56:17;;;;;;;217.00;206.45;;;;;;;7.25;78.75;102703.19;5087926;28;20040;-67
2022/01/23 02:58:56;;;;;;;198.48;188.88;;;;;;;7.08;79.39;102700.69;5090984;28;20043;-67
2022/01/23 03:01:24;;;;;;;197.55;187.75;;;;;;;7.24;78.57;102697.09;5082675;28;20040;-67
2022/01/23 03:03:57;;;;;;;211.80;201.27;;;;;;;6.91;80.18;102696.47;5088083;28;20535;-67
2022/01/23 03:06:39;;;;;;;192.00;182.55;;;;;;;7.02;79.68;102698.09;5090847;28;20514;-67
2022/01/23 03:09:50;;;;;;;174.77;166.38;;;;;;;6.84;80.32;102698.22;5090646;28;20062;-67
2022/01/23 03:12:09;;;;;;;233.10;222.00;;;;;;;6.88;80.21;102702.53;5084529;28;20047;-67
2022/01/23 03:14:43;;;;;;;214.07;203.40;;;;;;;6.76;80.38;102697.41;5090285;28;20529;-67
2022/01/23 03:25:48;;;;;;;368.85;343.83;;;;;;;6.43;81.67;102708.81;5052686;28;20113;-67
2022/01/23 03:28:21;;;;;;;233.75;222.02;;;;;;;6.80;79.95;102715.59;5055824;28;20050;-67
2022/01/23 03:30:55;;;;;;;222.30;211.18;;;;;;;6.87;79.96;102718.22;5072963;28;20140;-67
2022/01/23 03:33:21;;;;;;;264.65;251.13;;;;;;;6.55;81.33;102711.38;5080448;28;20048;-67
2022/01/23 03:35:48;;;;;;;204.07;193.80;;;;;;;6.62;81.24;102714.81;5059272;28;20045;-67
2022/01/23 03:38:14;;;;;;;236.35;224.45;;;;;;;6.61;81.71;102719.19;5065537;28;20053;-67
2022/01/23 03:40:42;;;;;;;217.98;207.40;;;;;;;6.59;81.74;102720.91;5057458;28;20448;-67
2022/01/23 03:43:11;;;;;;;219.40;208.57;;;;;;;6.83;80.82;102718.22;5054056;28;20049;-67
2022/01/23 03:45:57;;;;;;;265.70;251.68;;;;;;;6.66;81.03;102706.13;5064646;28;20121;-67
2022/01/23 03:51:07;;;;;;;283.08;268.35;;;;;;;6.43;82.97;102708.81;5072637;28;20059;-66
2022/01/23 03:53:33;;;;;;;244.77;232.68;;;;;;;6.38;83.40;102705.38;5071956;28;20098;-66
2022/01/23 03:56:01;;;;;;;281.20;267.02;;;;;;;6.47;83.61;102697.50;5070038;28;20101;-66
2022/01/23 03:58:27;;;;;;;275.55;261.42;;;;;;;6.84;81.52;102698.22;5069404;28;20090;-66
2022/01/23 04:00:54;;;;;;;295.13;280.92;;;;;;;6.82;81.37;102705.19;5067540;28;20048;-66
2022/01/23 04:03:22;;;;;;;238.73;226.35;;;;;;;7.11;80.11;102708.50;5056652;28;20045;-66
2022/01/23 04:05:50;;;;;;;334.33;316.23;;;;;;;6.43;82.65;102713.19;5062000;28;20074;-66
2022/01/23 04:08:16;;;;;;;259.88;247.38;;;;;;;6.75;81.63;102706.97;5068899;28;20044;-66
2022/01/23 04:10:43;;;;;;;253.13;240.38;;;;;;;6.63;81.67;102704.41;5069523;28;20105;-66
2022/01/23 04:13:17;;;;;;;286.13;272.20;;;;;;;6.84;81.21;102716.47;5069281;28;20049;-66
2022/01/23 04:15:48;;;;;;;272.42;259.20;;;;;;;6.67;81.68;102713.06;5069543;28;20143;-67
2022/01/23 04:21:19;;;;;;;441.45;408.63;;;;;;;6.32;83.00;102713.19;5078979;28;20048;-66
2022/01/23 04:32:14;;;;;;;231.38;219.65;;;;;;;6.20;83.89;102714.09;5057614;28;20048;-67
2022/01/23 04:34:56;;;;;;;234.82;221.48;;;;;;;6.14;84.23;102705.41;5087910;28;20040;-67
2022/01/23 04:45:40;;;;;;;213.13;202.43;;;;;;;6.31;83.39;102721.91;5082324;28;20051;-67
2022/01/23 05:02:09;;;;;;;197.07;187.63;;;;;;;6.62;81.71;102739.16;5078130;28;20067;-66
2022/01/23 05:04:37;;;;;;;246.05;234.40;;;;;;;6.61;81.19;102737.44;5074839;28;20041;-67
2022/01/23 05:07:06;;;;;;;192.20;182.80;;;;;;;6.76;80.70;102746.94;5066722;28;20044;-67
2022/01/23 05:09:33;;;;;;;182.23;172.73;;;;;;;6.89;79.89;102756.44;5057810;28;20051;-67
2022/01/23 05:12:01;;;;;;;180.70;171.73;;;;;;;6.83;80.26;102765.16;5065159;28;20044;-67
2022/01/23 05:14:32;;;;;;;198.90;189.10;;;;;;;6.77;80.39;102757.34;5080935;28;20086;-67
2022/01/23 05:17:01;;;;;;;200.88;190.40;;;;;;;6.78;80.51;102759.09;5071759;28;20079;-67
2022/01/23 05:19:27;;;;;;;238.30;226.82;;;;;;;6.86;79.74;102756.44;5085033;28;20399;-67
2022/01/23 05:22:19;;;;;;;224.13;213.18;;;;;;;7.16;78.68;102751.09;5084874;28;20053;-67
2022/01/23 05:24:51;;;;;;;236.23;225.05;;;;;;;7.01;79.18;102750.28;5080951;28;20043;-67
2022/01/23 05:27:18;;;;;;;220.32;209.63;;;;;;;6.67;80.39;102747.84;5088242;28;20048;-67
2022/01/23 05:29:45;;;;;;;373.33;352.70;;;;;;;6.65;80.19;102748.72;5076768;28;20045;-67
2022/01/23 05:32:13;;;;;;;229.25;217.82;;;;;;;6.93;79.60;102752.06;5067722;28;20102;-67
2022/01/23 05:34:40;;;;;;;211.95;201.73;;;;;;;6.89;79.67;102752.94;5067583;28;20048;-67
2022/01/23 05:37:06;;;;;;;220.27;209.90;;;;;;;7.06;78.37;102743.31;5067887;28;20041;-67
2022/01/23 05:39:33;;;;;;;236.95;225.40;;;;;;;6.80;79.66;102751.25;5067624;28;20500;-67
2022/01/23 05:42:06;;;;;;;230.73;219.40;;;;;;;6.94;78.94;102749.47;5068584;28;20132;-67
2022/01/23 05:44:33;;;;;;;239.73;228.35;;;;;;;6.94;79.31;102743.38;5073364;28;20110;-67
2022/01/23 05:46:59;;;;;;;234.45;222.75;;;;;;;6.87;79.52;102752.09;5060600;28;20473;-67
2022/01/23 05:49:27;;;;;;;213.57;202.65;;;;;;;6.78;79.65;102751.25;5088406;28;20410;-67
2022/01/23 05:51:53;;;;;;;223.63;212.35;;;;;;;6.68;80.68;102748.72;5077650;28;20518;-67
2022/01/23 05:54:19;;;;;;;255.35;242.93;;;;;;;6.48;81.45;102748.75;5067760;28;20040;-67
2022/01/23 05:56:46;;;;;;;249.55;237.35;;;;;;;6.39;81.85;102756.63;5067927;28;20045;-66
2022/01/23 05:59:13;;;;;;;248.52;236.68;;;;;;;6.57;81.25;102756.56;5068092;28;20050;-67
2022/01/23 06:01:40;;;;;;;290.58;276.58;;;;;;;6.48;81.71;102759.19;5066882;28;20097;-67
2022/01/23 06:04:06;;;;;;;252.43;239.48;;;;;;;6.59;81.76;102759.16;5071275;28;20512;-66
2022/01/23 06:06:34;;;;;;;751.50;486.00;;;;;;;6.14;83.75;102770.53;5071851;28;20045;-66
2022/01/23 06:09:00;;;;;;;317.20;301.25;;;;;;;6.45;83.09;102774.84;5071525;28;20052;-66
2022/01/23 06:11:27;;;;;;;316.85;301.55;;;;;;;6.45;83.34;102774.84;5074025;28;20044;-66
2022/01/23 06:13:53;;;;;;;343.67;326.77;;;;;;;6.48;83.19;102787.84;5071148;28;20063;-66
2022/01/23 06:16:19;;;;;;;277.52;263.83;;;;;;;6.68;82.54;102788.69;5071119;28;20060;-66
2022/01/23 06:18:46;;;;;;;1573.82;820.13;;;;;;;6.63;82.76;102782.59;5068384;28;20048;-66
2022/01/23 06:21:16;;;;;;;300.10;284.90;;;;;;;6.81;81.81;102784.28;5067158;28;20529;-66
2022/01/23 06:23:43;;;;;;;1999.90;999.90;;;;;;;6.70;82.38;102788.66;5067484;28;20044;-66
2022/01/23 06:26:10;;;;;;;1127.50;620.53;;;;;;;6.42;83.30;102790.47;5070061;28;20100;-66
2022/01/23 06:28:43;;;;;;;1999.90;999.90;;;;;;;6.24;84.22;102796.59;5070393;28;20508;-66
2022/01/23 06:31:10;;;;;;;1150.53;643.03;;;;;;;6.23;84.61;102793.97;5070719;28;20094;-66
2022/01/23 06:33:36;;;;;;;1999.90;999.90;;;;;;;6.48;83.88;102794.78;5069713;28;20696;-66
2022/01/23 06:36:03;;;;;;;1115.63;609.75;;;;;;;6.70;82.38;102786.91;5061019;28;20098;-66
2022/01/23 06:38:30;;;;;;;304.65;286.88;;;;;;;6.33;84.26;102793.97;5062958;28;20080;-66
2022/01/23 06:40:57;;;;;;;1999.90;999.90;;;;;;;6.74;82.89;102795.59;5070300;28;20120;-66
2022/01/23 06:43:24;;;;;;;1564.65;811.38;;;;;;;6.65;83.09;102793.88;5070903;28;20105;-66
2022/01/23 06:45:50;;;;;;;1999.90;999.90;;;;;;;6.55;83.11;102799.13;5070748;28;20049;-66
2022/01/23 06:48:17;;;;;;;1999.90;999.90;;;;;;;6.66;82.78;102803.44;5070234;28;20128;-66
2022/01/23 06:50:43;;;;;;;1603.78;845.13;;;;;;;6.39;83.12;102806.13;5071035;28;20051;-66
2022/01/23 06:53:10;;;;;;;1565.38;812.10;;;;;;;6.50;83.25;102795.69;5069893;28;20125;-66
2022/01/23 06:55:36;;;;;;;1999.90;999.90;;;;;;;6.38;84.16;102814.81;5090804;28;20089;-66
2022/01/23 06:58:04;;;;;;;1142.72;635.60;;;;;;;6.64;82.74;102806.94;5070453;28;20076;-66
2022/01/23 07:00:32;;;;;;;1999.90;999.90;;;;;;;6.61;83.13;102806.94;5071181;28;20110;-66
2022/01/23 07:02:59;;;;;;;1133.45;626.85;;;;;;;6.27;84.29;102814.81;5069285;28;20499;-66
2022/01/23 07:05:25;;;;;;;1568.40;814.88;;;;;;;6.65;82.58;102819.09;5070835;28;20127;-66
2022/01/23 07:07:52;;;;;;;1999.90;999.90;;;;;;;6.43;84.05;102826.06;5070188;28;20075;-66
2022/01/23 07:10:21;;;;;;;1999.90;999.90;;;;;;;6.30;84.41;102822.63;5070477;28;20105;-66
2022/01/23 07:12:47;;;;;;;1999.90;999.90;;;;;;;6.76;82.69;102833.81;5070505;28;20668;-66
2022/01/23 07:15:15;;;;;;;1567.97;814.70;;;;;;;6.69;82.94;102826.88;5070178;28;20040;-66
2022/01/23 07:17:41;;;;;;;1999.90;999.90;;;;;;;6.50;84.05;102830.44;5062030;28;20110;-66
2022/01/23 07:20:09;;;;;;;1999.90;999.90;;;;;;;6.58;83.91;102833.88;5070715;28;20041;-66
2022/01/23 07:22:36;;;;;;;1999.90;999.90;;;;;;;6.75;82.92;102836.44;5069980;28;20048;-66
2022/01/23 07:25:04;;;;;;;1999.90;999.90;;;;;;;6.68;83.41;102832.13;5069829;28;20053;-66
2022/01/23 07:27:34;;;;;;;1999.90;999.90;;;;;;;7.01;82.20;102832.03;5068930;28;20044;-66
2022/01/23 07:30:01;;;;;;;1999.90;999.90;;;;;;;6.65;83.96;102842.56;5073884;28;20045;-66
2022/01/23 07:32:28;;;;;;;1999.90;999.90;;;;;;;6.52;83.79;102844.31;5078532;28;20043;-66
2022/01/23 07:34:55;;;;;;;1999.90;999.90;;;;;;;6.66;83.75;102850.38;5087695;28;20044;-66
2022/01/23 07:37:21;;;;;;;1999.90;999.90;;;;;;;6.84;83.08;102837.28;5088798;28;20080;-66
2022/01/23 07:39:47;;;;;;;1999.90;999.90;;;;;;;6.62;83.91;102840.81;5089649;27;20410;-66
2022/01/23 07:42:14;;;;;;;1999.90;999.90;;;;;;;6.34;85.27;102846.94;5086314;28;20062;-66
2022/01/23 07:44:40;;;;;;;1999.90;999.90;;;;;;;6.24;85.59;102846.09;5089327;28;20488;-66
2022/01/23 07:47:07;;;;;;;1558.90;805.67;;;;;;;6.34;84.94;102849.56;5089119;28;20040;-66
2022/01/23 07:49:35;;;;;;;1999.90;999.90;;;;;;;6.48;85.33;102854.75;5090072;28;20492;-66
2022/01/23 07:52:04;;;;;;;1999.90;999.90;;;;;;;6.69;84.14;102858.16;5088597;28;20098;-66
2022/01/23 07:54:30;;;;;;;1557.28;804.50;;;;;;;6.97;82.69;102855.50;5089311;28;20067;-65
2022/01/23 07:56:56;;;;;;;1562.60;809.60;;;;;;;7.16;82.13;102855.44;5087052;28;20036;-65
2022/01/23 07:59:23;;;;;;;1999.90;999.90;;;;;;;7.32;81.61;102856.22;5088368;28;20500;-66
2022/01/23 08:01:49;;;;;;;1999.90;999.90;;;;;;;7.14;82.73;102862.41;5084809;28;20040;-65
2022/01/23 08:04:15;;;;;;;1999.90;999.90;;;;;;;7.34;81.89;102871.03;5087220;28;20043;-66
2022/01/23 08:06:46;;;;;;;1125.65;619.30;;;;;;;7.29;81.65;102864.06;5067914;28;20095;-65
2022/01/23 08:09:12;;;;;;;1999.90;999.90;;;;;;;7.01;82.98;102865.94;5084571;28;20485;-66
2022/01/23 08:11:39;;;;;;;1999.90;999.90;;;;;;;6.99;83.68;102870.25;5087950;28;20453;-66
2022/01/23 08:14:06;;;;;;;1999.90;999.90;;;;;;;6.75;84.11;102872.94;5081373;28;20044;-66
2022/01/23 08:16:33;;;;;;;1999.90;999.90;;;;;;;6.89;84.32;102875.53;5072878;28;20068;-66
2022/01/23 08:18:59;;;;;;;1999.90;999.90;;;;;;;6.93;84.28;102878.13;5069545;28;20052;-66
2022/01/23 08:21:25;;;;;;;1999.90;999.90;;;;;;;6.74;84.27;102885.13;5070655;28;20049;-65
2022/01/23 08:23:54;;;;;;;294.75;279.92;;;;;;;6.97;84.56;102879.84;5067509;28;20562;-66
2022/01/23 08:26:22;;;;;;;1999.90;999.90;;;;;;;7.15;83.34;102873.69;5051758;28;20068;-66
2022/01/23 08:28:48;;;;;;;1999.90;999.90;;;;;;;7.23;83.17;102874.53;5054930;28;20053;-65
2022/01/23 08:31:15;;;;;;;1999.90;999.90;;;;;;;7.10;82.98;102873.72;5065911;28;20114;-65
2022/01/23 08:33:41;;;;;;;1999.90;999.90;;;;;;;7.22;83.16;102883.25;5050034;28;20041;-65
2022/01/23 08:36:07;;;;;;;274.00;260.13;;;;;;;7.28;83.26;102875.38;5066693;28;20045;-66
2022/01/23 08:38:34;;;;;;;270.20;256.42;;;;;;;7.40;83.11;102877.06;5067662;28;20659;-66
2022/01/23 08:43:48;;;;;;;1568.35;814.80;;;;;;;7.78;81.57;102888.19;5085610;28;20051;-66
2022/01/23 08:46:14;;;;;;;1999.90;999.90;;;;;;;7.35;83.16;102879.72;5080060;28;20074;-66
2022/01/23 08:48:41;;;;;;;1999.90;999.90;;;;;;;7.35;82.93;102888.41;5087943;28;20063;-66
2022/01/23 08:51:08;;;;;;;1999.90;999.90;;;;;;;7.39;83.18;102885.78;5087369;28;20055;-66
2022/01/23 08:53:34;;;;;;;1999.90;999.90;;;;;;;7.43;83.52;102885.75;5086429;28;20105;-67
2022/01/23 08:56:03;;;;;;;1999.90;999.90;;;;;;;7.51;82.80;102886.59;5088602;28;20040;-66
2022/01/23 08:58:29;;;;;;;280.95;266.08;;;;;;;7.68;82.01;102889.13;5079087;28;20545;-66
2022/01/23 09:00:55;;;;;;;1999.90;999.90;;;;;;;7.54;83.01;102880.50;5084619;27;20423;-66
2022/01/23 09:03:22;;;;;;;1999.90;999.90;;;;;;;7.53;83.03;102879.63;5086335;28;20100;-66
2022/01/23 09:05:48;;;;;;;1999.90;999.90;;;;;;;7.89;82.02;102885.50;5087869;28;20120;-66
2022/01/23 09:08:15;;;;;;;1999.90;999.90;;;;;;;7.40;83.69;102880.56;5084776;28;20415;-67
2022/01/23 09:10:52;;;;;;;1571.32;817.72;;;;;;;7.66;83.25;102889.13;5087755;28;20118;-66
2022/01/23 09:13:31;;;;;;;1999.90;999.90;;;;;;;7.49;84.01;102884.88;5079827;28;20625;-66
2022/01/23 09:15:57;;;;;;;1999.90;999.90;;;;;;;7.36;84.29;102881.44;5086657;28;20126;-67
2022/01/23 09:18:24;;;;;;;1999.90;999.90;;;;;;;7.78;83.48;102877.75;5076558;27;20125;-67
2022/01/23 09:20:50;;;;;;;1569.65;815.78;;;;;;;7.75;82.70;102881.25;5069876;28;20102;-66
2022/01/23 09:23:16;;;;;;;1999.90;999.90;;;;;;;7.90;82.12;102885.50;5066394;28;20070;-66
2022/01/23 09:25:43;;;;;;;1153.32;644.65;;;;;;;7.80;82.39;102889.91;5067073;28;20109;-67
2022/01/23 09:28:13;;;;;;;1587.13;832.15;;;;;;;7.68;83.05;102882.16;5065239;28;20169;-66
2022/01/23 09:30:44;;;;;;;1999.90;999.90;;;;;;;7.63;83.05;102893.50;5058099;28;20136;-66
2022/01/23 09:33:11;;;;;;;1999.90;999.90;;;;;;;7.87;81.83;102888.13;5064976;28;20295;-66
2022/01/23 09:35:37;;;;;;;1999.90;999.90;;;;;;;7.90;82.02;102889.84;5061571;28;20049;-66
2022/01/23 09:38:04;;;;;;;772.47;507.80;;;;;;;7.78;81.88;102891.66;5065607;28;20049;-67
2022/01/23 09:40:30;;;;;;;1999.90;999.90;;;;;;;7.77;82.26;102889.94;5071164;28;20492;-66
2022/01/23 09:43:06;;;;;;;1999.90;999.90;;;;;;;7.97;82.32;102897.66;5069490;28;20106;-66
2022/01/23 09:45:32;;;;;;;1999.90;999.90;;;;;;;8.21;82.14;102907.91;5056520;28;20045;-66
2022/01/23 09:48:02;;;;;;;1999.90;999.90;;;;;;;8.29;81.96;102905.28;5086679;28;20048;-66
2022/01/23 09:50:30;;;;;;;1999.90;999.90;;;;;;;8.07;81.65;102903.66;5090527;28;20415;-66
2022/01/23 09:52:58;;;;;;;1999.90;999.90;;;;;;;8.15;81.50;102904.47;5088412;28;20090;-66
2022/01/23 09:55:27;;;;;;;1575.78;821.60;;;;;;;8.10;82.08;102904.50;5091074;28;20089;-67
2022/01/23 09:57:53;;;;;;;1999.90;999.90;;;;;;;8.25;82.02;102906.13;5090406;28;20073;-67
2022/01/23 10:00:24;;;;;;;1999.90;999.90;;;;;;;8.07;82.54;102917.59;5090699;28;20052;-66
2022/01/23 10:02:50;;;;;;;1999.90;999.90;;;;;;;8.26;81.72;102913.97;5089581;28;20472;-66
2022/01/23 10:05:19;;;;;;;1999.90;999.90;;;;;;;8.16;82.51;102912.31;5090990;27;20055;-67
2022/01/23 10:07:46;;;;;;;1999.90;999.90;;;;;;;8.64;81.64;102918.06;5089017;28;20037;-66
2022/01/23 10:10:17;;;;;;;1999.90;999.90;;;;;;;8.96;81.29;102918.59;5090635;28;20093;-66
2022/01/23 10:12:47;;;;;;;376.20;356.92;;;;;;;9.12;80.09;102921.94;5090114;28;20127;-66
2022/01/23 10:15:14;;;;;;;385.83;366.83;;;;;;;9.28;78.80;102924.34;5090531;28;20097;-66
2022/01/23 10:17:41;;;;;;;1601.97;846.08;;;;;;;9.06;78.52;102924.59;5089391;28;20044;-66
2022/01/23 10:20:09;;;;;;;414.55;393.63;;;;;;;9.14;78.59;102931.50;5089347;28;20056;-66
2022/01/23 10:22:40;;;;;;;416.48;395.77;;;;;;;9.24;78.84;102930.50;5089791;28;20512;-66
2022/01/23 10:25:08;;;;;;;378.80;359.40;;;;;;;9.08;79.53;102936.81;5086036;28;20106;-67
2022/01/23 10:28:02;;;;;;;1175.80;667.33;;;;;;;9.19;78.69;102940.19;5090863;28;20676;-68
2022/01/23 10:30:31;;;;;;;1999.90;999.90;;;;;;;9.38;78.79;102929.50;5087953;28;20044;-67
2022/01/23 10:32:59;;;;;;;318.92;303.63;;;;;;;9.43;77.12;102920.69;5089408;28;20048;-67
2022/01/23 10:35:26;;;;;;;1605.93;850.35;;;;;;;9.79;77.44;102924.59;5090845;28;20109;-68
2022/01/23 10:37:55;;;;;;;469.60;444.23;;;;;;;9.97;76.91;102923.47;5089793;28;20036;-68
2022/01/23 10:40:30;;;;;;;436.60;414.67;;;;;;;10.04;75.36;102919.84;5090734;28;20113;-67
2022/01/23 10:48:39;;;;;;;400.00;380.20;;;;;;;9.28;78.03;102926.97;5085447;28;20128;-62
2022/01/23 10:51:23;;;;;;;353.33;336.15;;;;;;;8.94;78.77;102927.38;5067480;28;20047;-66
2022/01/23 10:54:00;;;;;;;781.83;517.13;;;;;;;9.04;79.59;102934.22;5082907;28;20032;-66
2022/01/23 10:56:27;;;;;;;1185.95;676.38;;;;;;;8.78;80.91;102930.13;5077365;28;20052;-66
2022/01/23 10:58:57;;;;;;;1602.10;846.70;;;;;;;9.18;80.02;102917.50;5075465;28;20066;-66
2022/01/23 11:01:23;;;;;;;1572.75;818.33;;;;;;;9.42;80.28;102916.34;5067584;28;20052;-66
2022/01/23 11:04:03;;;;;;;1184.68;675.05;;;;;;;9.72;79.14;102915.06;5070153;28;20048;-66
2022/01/23 11:06:30;;;;;;;433.88;412.35;;;;;;;9.90;78.86;102927.06;5087045;28;20044;-66
2022/01/23 11:09:09;;;;;;;419.30;399.20;;;;;;;10.02;77.54;102924.25;5090810;28;20414;-66
2022/01/23 11:11:44;;;;;;;516.60;487.65;;;;;;;9.77;77.21;102916.75;5089492;28;20036;-66
2022/01/23 11:19:46;;;;;;;434.30;412.35;;;;;;;10.16;75.97;102898.75;5073214;28;20059;-66
2022/01/23 11:22:17;;;;;;;491.60;466.05;;;;;;;10.07;75.54;102902.31;5068394;28;20045;-67
2022/01/23 11:24:47;;;;;;;476.25;451.80;;;;;;;9.97;76.92;102900.75;5050238;28;20049;-67
2022/01/23 11:27:14;;;;;;;491.38;466.30;;;;;;;9.98;76.84;102902.44;5069997;28;20048;-67
2022/01/23 11:29:54;;;;;;;524.70;495.58;;;;;;;9.79;76.38;102899.22;5066868;28;20102;-67
2022/01/23 11:32:22;;;;;;;383.98;365.30;;;;;;;9.58;77.86;102898.66;5076547;28;20135;-67
2022/01/23 11:34:50;;;;;;;387.85;369.25;;;;;;;9.62;77.63;102901.22;5070363;28;20048;-67
2022/01/23 11:37:18;;;;;;;385.63;366.05;;;;;;;9.38;79.18;102892.84;5062631;28;20806;-67
2022/01/23 11:39:50;;;;;;;445.48;420.60;;;;;;;9.22;79.74;102893.00;5069526;28;20056;-67
2022/01/23 11:53:46;;;;;;;1188.20;678.55;;;;;;;9.41;79.11;102896.28;5059120;28;20044;-66
2022/01/23 11:56:38;;;;;;;372.17;354.20;;;;;;;9.41;79.49;102890.16;5081241;28;20122;-66
2022/01/23 11:59:28;;;;;;;398.10;377.40;;;;;;;9.18;79.90;102893.06;5089859;28;20453;-66
2022/01/23 12:02:16;;;;;;;1169.90;661.83;;;;;;;9.08;79.86;102894.94;5083290;28;20068;-66
2022/01/23 12:04:44;;;;;;;1999.90;999.90;;;;;;;8.91;81.33;102893.34;5073733;28;20041;-65
2022/01/23 12:07:21;;;;;;;1601.72;846.28;;;;;;;8.91;81.35;102889.00;5069367;28;20044;-65
2022/01/23 12:10:10;;;;;;;277.60;263.83;;;;;;;8.79;82.30;102884.75;5069310;28;20045;-66
2022/01/23 12:12:41;;;;;;;1582.35;828.17;;;;;;;9.04;81.14;102887.13;5072887;27;20055;-66
2022/01/23 12:18:13;;;;;;;1221.30;707.58;;;;;;;9.11;81.11;102883.56;5075529;28;20178;-66
2022/01/23 12:20:40;;;;;;;1999.90;999.90;;;;;;;9.01;81.73;102874.09;5089201;28;20127;-66
2022/01/23 12:23:06;;;;;;;1999.90;999.90;;;;;;;9.19;80.90;102873.88;5088713;28;20080;-66
2022/01/23 12:25:41;;;;;;;1215.57;703.95;;;;;;;9.14;79.65;102875.66;5070451;28;20045;-66
2022/01/23 12:28:14;;;;;;;422.40;400.20;;;;;;;9.26;79.50;102880.75;5052151;28;20045;-66
2022/01/23 12:30:44;;;;;;;1285.18;761.13;;;;;;;8.65;80.61;102876.19;5068944;28;20067;-66
2022/01/23 12:33:13;;;;;;;400.05;379.27;;;;;;;8.97;81.00;102875.00;5081242;28;20097;-66
2022/01/23 12:35:42;;;;;;;1999.90;999.90;;;;;;;9.16;80.61;102876.53;5075359;28;20424;-66
2022/01/23 12:38:10;;;;;;;1999.90;999.90;;;;;;;9.19;80.10;102876.47;5069096;28;20094;-66
2022/01/23 12:40:41;;;;;;;385.85;366.95;;;;;;;9.18;80.75;102874.75;5067470;28;20044;-66
2022/01/23 12:43:11;;;;;;;390.13;370.33;;;;;;;9.21;79.80;102862.47;5068704;28;20055;-66
2022/01/23 12:46:00;;;;;;;428.35;404.55;;;;;;;8.98;79.94;102874.13;5068627;28;20101;-66
2022/01/23 12:48:45;;;;;;;328.80;312.30;;;;;;;8.86;80.68;102882.97;5058345;28;20048;-66
2022/01/23 12:51:32;;;;;;;394.95;375.30;;;;;;;9.11;79.38;102878.31;5082463;28;20047;-65
2022/01/23 12:54:14;;;;;;;1187.50;678.03;;;;;;;9.13;79.63;102879.16;5076690;28;20048;-66
2022/01/23 12:56:43;;;;;;;375.80;356.35;;;;;;;8.87;79.62;102868.97;5068345;28;20436;-66
2022/01/23 12:59:20;;;;;;;1999.90;999.90;;;;;;;9.20;79.51;102873.00;5076338;28;20047;-66
2022/01/23 13:01:48;;;;;;;372.45;354.35;;;;;;;9.15;79.57;102866.94;5072015;28;20039;-66
2022/01/23 13:04:16;;;;;;;1588.63;833.33;;;;;;;9.00;79.74;102864.50;5074616;28;20044;-66
2022/01/23 13:06:49;;;;;;;373.27;353.83;;;;;;;9.08;79.41;102873.13;5070604;28;20094;-66
2022/01/23 13:09:23;;;;;;;375.08;356.17;;;;;;;9.19;79.25;102874.75;5065738;28;20135;-65
2022/01/23 13:12:11;;;;;;;362.60;344.48;;;;;;;8.97;79.93;102868.03;5065962;28;20613;-66
2022/01/23 13:14:43;;;;;;;1999.90;999.90;;;;;;;9.01;80.42;102880.19;5050343;28;20115;-66
2022/01/23 13:17:26;;;;;;;1999.90;999.90;;;;;;;8.74;81.31;102881.34;5068161;27;20082;-66
2022/01/23 13:30:49;;;;;;;;;;;;;;;8.91;81.08;102877.66;5047956;28;20127;-66
2022/01/23 13:33:20;;;;;;;1999.90;999.90;;;;;;;8.90;81.10;102881.19;5073064;28;19920;-65
2022/01/23 13:35:51;;;;;;;1999.90;999.90;;;;;;;9.08;80.42;102883.59;5067985;28;20037;-65
2022/01/23 13:38:19;;;;;;;1999.90;999.90;;;;;;;9.02;80.43;102881.91;5068616;28;20131;-65
2022/01/23 13:40:45;;;;;;;1999.90;999.90;;;;;;;9.20;79.81;102879.06;5068006;28;20127;-66